sensor_id;sensor_type;location;lat;lon;timestamp;pressure;altitude;pressure_sealevel;temperature;humidity
61324;BME280;47203;48.428;11.974;2023-12-07T00:01:40;96997.16;;;5.21;58.38
61324;BME280;47203;48.428;11.974;2023-12-07T00:03:42;96993.94;;;5.19;58.53
61324;BME280;47203;48.428;11.974;2023-12-07T00:05:50;96997.78;;;5.17;58.12
61324;BME280;47203;48.428;11.974;2023-12-07T00:07:55;96998.00;;;5.15;58.30
61324;BME280;47203;48.428;11.974;2023-12-07T00:12:44;97000.38;;;5.05;58.32
61324;BME280;47203;48.428;11.974;2023-12-07T00:14:49;97001.03;;;5.00;58.46
61324;BME280;47203;48.428;11.974;2023-12-07T00:16:54;97006.47;;;4.99;58.38
61324;BME280;47203;48.428;11.974;2023-12-07T00:18:59;97005.69;;;4.98;58.39
61324;BME280;47203;48.428;11.974;2023-12-07T00:21:07;97009.53;;;4.96;58.10
61324;BME280;47203;48.428;11.974;2023-12-07T00:23:10;97012.56;;;4.93;58.49
61324;BME280;47203;48.428;11.974;2023-12-07T00:25:15;97008.59;;;4.90;58.29
61324;BME280;47203;48.428;11.974;2023-12-07T00:27:20;97009.81;;;4.87;58.35
61324;BME280;47203;48.428;11.974;2023-12-07T00:29:26;97013.47;;;4.86;58.32
61324;BME280;47203;48.428;11.974;2023-12-07T00:31:31;97018.09;;;4.84;58.28
61324;BME280;47203;48.428;11.974;2023-12-07T00:33:34;97013.09;;;4.83;58.15
61324;BME280;47203;48.428;11.974;2023-12-07T00:35:39;97017.53;;;4.82;58.29
61324;BME280;47203;48.428;11.974;2023-12-07T00:37:44;97015.91;;;4.81;58.31
61324;BME280;47203;48.428;11.974;2023-12-07T00:39:49;97006.72;;;4.79;58.48
61324;BME280;47203;48.428;11.974;2023-12-07T00:41:54;97004.94;;;4.79;58.16
61324;BME280;47203;48.428;11.974;2023-12-07T00:43:59;97013.75;;;4.78;58.35
61324;BME280;47203;48.428;11.974;2023-12-07T00:46:06;97018.41;;;4.76;58.19
61324;BME280;47203;48.428;11.974;2023-12-07T00:48:12;97020.63;;;4.72;58.37
61324;BME280;47203;48.428;11.974;2023-12-07T00:50:17;97021.88;;;4.70;58.25
61324;BME280;47203;48.428;11.974;2023-12-07T00:52:19;97027.53;;;4.67;58.62
61324;BME280;47203;48.428;11.974;2023-12-07T00:54:27;97021.16;;;4.63;58.28
61324;BME280;47203;48.428;11.974;2023-12-07T00:56:29;97025.00;;;4.60;58.48
61324;BME280;47203;48.428;11.974;2023-12-07T00:58:34;97019.41;;;4.57;58.55
61324;BME280;47203;48.428;11.974;2023-12-07T01:00:40;97020.06;;;4.52;58.59
61324;BME280;47203;48.428;11.974;2023-12-07T01:02:46;97020.50;;;4.49;58.51
61324;BME280;47203;48.428;11.974;2023-12-07T01:04:51;97023.78;;;4.44;58.50
61324;BME280;47203;48.428;11.974;2023-12-07T01:06:54;97021.00;;;4.39;58.50
61324;BME280;47203;48.428;11.974;2023-12-07T01:09:00;97025.66;;;4.37;58.36
61324;BME280;47203;48.428;11.974;2023-12-07T01:11:08;97023.47;;;4.34;58.45
61324;BME280;47203;48.428;11.974;2023-12-07T01:13:13;97040.13;;;4.33;58.47
61324;BME280;47203;48.428;11.974;2023-12-07T01:15:19;97038.53;;;4.32;58.48
61324;BME280;47203;48.428;11.974;2023-12-07T01:17:24;97039.78;;;4.29;58.30
61324;BME280;47203;48.428;11.974;2023-12-07T01:19:29;97041.78;;;4.27;58.23
61324;BME280;47203;48.428;11.974;2023-12-07T01:21:34;97041.00;;;4.27;58.21
61324;BME280;47203;48.428;11.974;2023-12-07T01:23:39;97039.38;;;4.26;58.46
61324;BME280;47203;48.428;11.974;2023-12-07T01:25:45;97040.38;;;4.25;58.48
61324;BME280;47203;48.428;11.974;2023-12-07T01:27:52;97045.59;;;4.25;58.53
61324;BME280;47203;48.428;11.974;2023-12-07T01:32:43;97039.25;;;4.21;58.64
61324;BME280;47203;48.428;11.974;2023-12-07T01:34:48;97037.66;;;4.19;58.61
61324;BME280;47203;48.428;11.974;2023-12-07T01:36:51;97052.47;;;4.19;58.64
61324;BME280;47203;48.428;11.974;2023-12-07T01:38:56;97054.50;;;4.17;58.55
61324;BME280;47203;48.428;11.974;2023-12-07T01:40:59;97052.09;;;4.15;58.39
61324;BME280;47203;48.428;11.974;2023-12-07T01:43:06;97055.16;;;4.12;58.42
61324;BME280;47203;48.428;11.974;2023-12-07T01:45:11;97053.53;;;4.11;58.34
61324;BME280;47203;48.428;11.974;2023-12-07T01:47:14;97057.16;;;4.10;58.67
61324;BME280;47203;48.428;11.974;2023-12-07T01:49:19;97054.97;;;4.07;58.60
61324;BME280;47203;48.428;11.974;2023-12-07T01:51:25;97057.44;;;4.02;58.53
61324;BME280;47203;48.428;11.974;2023-12-07T01:53:30;97060.69;;;3.97;58.57
61324;BME280;47203;48.428;11.974;2023-12-07T01:55:36;97055.09;;;3.94;58.36
61324;BME280;47203;48.428;11.974;2023-12-07T01:57:42;97057.34;;;3.90;58.39
61324;BME280;47203;48.428;11.974;2023-12-07T01:59:51;97057.16;;;3.85;58.44
61324;BME280;47203;48.428;11.974;2023-12-07T02:01:56;97063.00;;;3.80;58.61
61324;BME280;47203;48.428;11.974;2023-12-07T02:04:01;97060.25;;;3.75;58.47
61324;BME280;47203;48.428;11.974;2023-12-07T02:06:07;97062.69;;;3.70;58.47
61324;BME280;47203;48.428;11.974;2023-12-07T02:08:13;97067.53;;;3.66;58.53
61324;BME280;47203;48.428;11.974;2023-12-07T02:10:15;97064.53;;;3.63;58.77
61324;BME280;47203;48.428;11.974;2023-12-07T02:12:21;97064.97;;;3.60;58.86
61324;BME280;47203;48.428;11.974;2023-12-07T02:14:27;97067.56;;;3.60;58.59
61324;BME280;47203;48.428;11.974;2023-12-07T02:16:39;97059.97;;;3.58;58.85
61324;BME280;47203;48.428;11.974;2023-12-07T02:18:51;97069.59;;;3.58;58.69
61324;BME280;47203;48.428;11.974;2023-12-07T02:21:06;97067.00;;;3.58;58.88
61324;BME280;47203;48.428;11.974;2023-12-07T02:23:17;97071.78;;;3.61;58.91
61324;BME280;47203;48.428;11.974;2023-12-07T02:25:47;97075.75;;;3.63;58.87
61324;BME280;47203;48.428;11.974;2023-12-07T02:27:56;97071.72;;;3.67;58.50
61324;BME280;47203;48.428;11.974;2023-12-07T02:32:45;97080.50;;;3.73;58.44
61324;BME280;47203;48.428;11.974;2023-12-07T02:34:50;97085.06;;;3.78;58.66
61324;BME280;47203;48.428;11.974;2023-12-07T02:36:53;97097.66;;;3.81;58.65
61324;BME280;47203;48.428;11.974;2023-12-07T02:39:02;97096.22;;;3.85;58.66
61324;BME280;47203;48.428;11.974;2023-12-07T02:41:08;97089.59;;;3.89;58.37
61324;BME280;47203;48.428;11.974;2023-12-07T02:43:16;97094.38;;;3.92;58.53
61324;BME280;47203;48.428;11.974;2023-12-07T02:45:22;97084.34;;;3.96;58.63
61324;BME280;47203;48.428;11.974;2023-12-07T02:47:28;97084.13;;;3.97;58.41
61324;BME280;47203;48.428;11.974;2023-12-07T02:49:33;97088.09;;;4.00;58.45
61324;BME280;47203;48.428;11.974;2023-12-07T02:51:38;97087.09;;;4.01;58.42
61324;BME280;47203;48.428;11.974;2023-12-07T02:53:44;97088.69;;;4.02;58.54
61324;BME280;47203;48.428;11.974;2023-12-07T02:55:49;97090.31;;;4.03;58.46
61324;BME280;47203;48.428;11.974;2023-12-07T02:57:54;97098.69;;;4.05;58.41
61324;BME280;47203;48.428;11.974;2023-12-07T03:00:02;97100.28;;;4.06;58.58
61324;BME280;47203;48.428;11.974;2023-12-07T03:02:09;97103.47;;;4.08;58.50
61324;BME280;47203;48.428;11.974;2023-12-07T03:04:15;97110.84;;;4.11;58.49
61324;BME280;47203;48.428;11.974;2023-12-07T03:06:17;97106.47;;;4.12;58.81
61324;BME280;47203;48.428;11.974;2023-12-07T03:11:05;97125.06;;;4.15;58.76
61324;BME280;47203;48.428;11.974;2023-12-07T03:13:10;97118.03;;;4.16;58.54
61324;BME280;47203;48.428;11.974;2023-12-07T03:15:18;97116.03;;;4.18;58.81
61324;BME280;47203;48.428;11.974;2023-12-07T03:17:23;97120.19;;;4.19;58.66
61324;BME280;47203;48.428;11.974;2023-12-07T03:19:26;97117.81;;;4.17;58.76
61324;BME280;47203;48.428;11.974;2023-12-07T03:21:31;97116.03;;;4.18;58.85
61324;BME280;47203;48.428;11.974;2023-12-07T03:23:36;97124.06;;;4.16;58.85
61324;BME280;47203;48.428;11.974;2023-12-07T03:25:42;97120.63;;;4.16;58.92
61324;BME280;47203;48.428;11.974;2023-12-07T03:27:48;97122.25;;;4.17;58.67
61324;BME280;47203;48.428;11.974;2023-12-07T03:32:47;97129.69;;;4.13;58.82
61324;BME280;47203;48.428;11.974;2023-12-07T03:34:52;97130.47;;;4.14;58.82
61324;BME280;47203;48.428;11.974;2023-12-07T03:36:57;97132.88;;;4.15;58.70
61324;BME280;47203;48.428;11.974;2023-12-07T03:39:02;97135.47;;;4.15;58.90
61324;BME280;47203;48.428;11.974;2023-12-07T03:41:08;97139.09;;;4.14;58.73
61324;BME280;47203;48.428;11.974;2023-12-07T03:43:10;97141.91;;;4.13;58.75
61324;BME280;47203;48.428;11.974;2023-12-07T03:45:15;97134.09;;;4.13;58.92
61324;BME280;47203;48.428;11.974;2023-12-07T03:47:20;97137.50;;;4.13;58.62
61324;BME280;47203;48.428;11.974;2023-12-07T03:49:25;97138.28;;;4.14;58.84
61324;BME280;47203;48.428;11.974;2023-12-07T03:51:31;97138.28;;;4.14;58.80
61324;BME280;47203;48.428;11.974;2023-12-07T03:53:38;97138.50;;;4.12;58.94
61324;BME280;47203;48.428;11.974;2023-12-07T03:55:43;97141.91;;;4.13;58.77
61324;BME280;47203;48.428;11.974;2023-12-07T03:57:48;97143.94;;;4.11;58.63
61324;BME280;47203;48.428;11.974;2023-12-07T03:59:53;97149.56;;;4.08;58.76
61324;BME280;47203;48.428;11.974;2023-12-07T04:01:59;97147.19;;;4.06;58.52
61324;BME280;47203;48.428;11.974;2023-12-07T04:04:04;97144.78;;;4.05;58.57
61324;BME280;47203;48.428;11.974;2023-12-07T04:06:12;97148.41;;;4.04;58.74
61324;BME280;47203;48.428;11.974;2023-12-07T04:08:14;97152.00;;;4.02;58.84
61324;BME280;47203;48.428;11.974;2023-12-07T04:10:19;97158.22;;;4.01;58.67
61324;BME280;47203;48.428;11.974;2023-12-07T04:12:24;97159.03;;;4.02;58.77
61324;BME280;47203;48.428;11.974;2023-12-07T04:14:27;97164.66;;;3.99;58.83
61324;BME280;47203;48.428;11.974;2023-12-07T04:16:32;97167.69;;;3.96;58.74
61324;BME280;47203;48.428;11.974;2023-12-07T04:18:37;97161.09;;;3.93;58.85
61324;BME280;47203;48.428;11.974;2023-12-07T04:20:43;97162.28;;;3.91;58.73
61324;BME280;47203;48.428;11.974;2023-12-07T04:22:51;97160.91;;;3.88;58.64
61324;BME280;47203;48.428;11.974;2023-12-07T04:24:56;97168.56;;;3.83;58.70
61324;BME280;47203;48.428;11.974;2023-12-07T04:27:01;97169.19;;;3.78;58.94
61324;BME280;47203;48.428;11.974;2023-12-07T04:29:06;97167.81;;;3.76;59.04
61324;BME280;47203;48.428;11.974;2023-12-07T04:31:11;97175.81;;;3.74;58.78
61324;BME280;47203;48.428;11.974;2023-12-07T04:33:16;97176.03;;;3.73;58.88
61324;BME280;47203;48.428;11.974;2023-12-07T04:35:21;97177.03;;;3.72;59.01
61324;BME280;47203;48.428;11.974;2023-12-07T04:37:28;97177.25;;;3.70;59.06
61324;BME280;47203;48.428;11.974;2023-12-07T04:39:36;97177.25;;;3.70;58.93
61324;BME280;47203;48.428;11.974;2023-12-07T04:41:41;97172.81;;;3.71;58.88
61324;BME280;47203;48.428;11.974;2023-12-07T04:43:46;97171.44;;;3.68;59.11
61324;BME280;47203;48.428;11.974;2023-12-07T04:45:51;97169.84;;;3.67;58.87
61324;BME280;47203;48.428;11.974;2023-12-07T04:47:56;97175.25;;;3.65;58.81
61324;BME280;47203;48.428;11.974;2023-12-07T04:49:59;97182.69;;;3.62;58.94
61324;BME280;47203;48.428;11.974;2023-12-07T04:52:05;97175.91;;;3.61;59.05
61324;BME280;47203;48.428;11.974;2023-12-07T04:54:07;97175.28;;;3.59;58.69
61324;BME280;47203;48.428;11.974;2023-12-07T04:56:23;97172.09;;;3.57;58.82
61324;BME280;47203;48.428;11.974;2023-12-07T04:58:28;97176.31;;;3.58;58.93
61324;BME280;47203;48.428;11.974;2023-12-07T05:00:30;97181.53;;;3.58;58.82
61324;BME280;47203;48.428;11.974;2023-12-07T05:02:35;97183.31;;;3.57;58.86
61324;BME280;47203;48.428;11.974;2023-12-07T05:04:38;97183.31;;;3.57;58.65
61324;BME280;47203;48.428;11.974;2023-12-07T05:06:43;97181.69;;;3.56;58.79
61324;BME280;47203;48.428;11.974;2023-12-07T05:08:48;97189.50;;;3.56;58.80
61324;BME280;47203;48.428;11.974;2023-12-07T05:10:53;97191.31;;;3.56;58.97
61324;BME280;47203;48.428;11.974;2023-12-07T05:13:01;97184.50;;;3.55;59.07
61324;BME280;47203;48.428;11.974;2023-12-07T05:15:07;97190.53;;;3.55;59.00
61324;BME280;47203;48.428;11.974;2023-12-07T05:17:10;97191.53;;;3.54;58.83
61324;BME280;47203;48.428;11.974;2023-12-07T05:19:16;97196.16;;;3.52;58.85
61324;BME280;47203;48.428;11.974;2023-12-07T05:21:22;97194.56;;;3.51;58.88
61324;BME280;47203;48.428;11.974;2023-12-07T05:23:27;97197.38;;;3.49;58.88
61324;BME280;47203;48.428;11.974;2023-12-07T05:25:33;97194.75;;;3.49;58.96
61324;BME280;47203;48.428;11.974;2023-12-07T05:27:38;97199.97;;;3.49;58.88
61324;BME280;47203;48.428;11.974;2023-12-07T05:29:46;97197.78;;;3.46;58.99
61324;BME280;47203;48.428;11.974;2023-12-07T05:31:51;97204.19;;;3.44;58.99
61324;BME280;47203;48.428;11.974;2023-12-07T05:33:55;97196.59;;;3.42;58.96
61324;BME280;47203;48.428;11.974;2023-12-07T05:36:01;97198.59;;;3.40;58.79
61324;BME280;47203;48.428;11.974;2023-12-07T05:38:06;97201.38;;;3.39;58.64
61324;BME280;47203;48.428;11.974;2023-12-07T05:40:11;97197.41;;;3.36;58.95
61324;BME280;47203;48.428;11.974;2023-12-07T05:42:18;97197.41;;;3.36;58.81
61324;BME280;47203;48.428;11.974;2023-12-07T05:44:23;97199.19;;;3.36;58.84
61324;BME280;47203;48.428;11.974;2023-12-07T05:46:28;97198.19;;;3.37;58.96
61324;BME280;47203;48.428;11.974;2023-12-07T05:48:34;97194.00;;;3.36;58.90
61324;BME280;47203;48.428;11.974;2023-12-07T05:50:40;97199.81;;;3.38;58.68
61324;BME280;47203;48.428;11.974;2023-12-07T05:52:48;97194.81;;;3.36;58.70
61324;BME280;47203;48.428;11.974;2023-12-07T05:54:53;97201.59;;;3.37;58.99
61324;BME280;47203;48.428;11.974;2023-12-07T05:56:58;97194.19;;;3.34;58.78
61324;BME280;47203;48.428;11.974;2023-12-07T05:59:02;97198.63;;;3.34;58.89
61324;BME280;47203;48.428;11.974;2023-12-07T06:01:08;97209.03;;;3.34;58.89
61324;BME280;47203;48.428;11.974;2023-12-07T06:03:13;97195.22;;;3.33;58.95
61324;BME280;47203;48.428;11.974;2023-12-07T06:05:18;97192.63;;;3.33;59.04
61324;BME280;47203;48.428;11.974;2023-12-07T06:07:23;97200.44;;;3.33;58.80
61324;BME280;47203;48.428;11.974;2023-12-07T06:09:28;97193.63;;;3.32;58.88
61324;BME280;47203;48.428;11.974;2023-12-07T06:11:34;97196.03;;;3.34;58.88
61324;BME280;47203;48.428;11.974;2023-12-07T06:13:39;97188.41;;;3.32;59.09
61324;BME280;47203;48.428;11.974;2023-12-07T06:15:44;97185.81;;;3.32;59.17
61324;BME280;47203;48.428;11.974;2023-12-07T06:17:49;97186.81;;;3.31;59.05
61324;BME280;47203;48.428;11.974;2023-12-07T06:19:57;97195.63;;;3.30;59.00
61324;BME280;47203;48.428;11.974;2023-12-07T06:21:59;97186.22;;;3.29;59.00
61324;BME280;47203;48.428;11.974;2023-12-07T06:24:05;97182.81;;;3.28;59.06
61324;BME280;47203;48.428;11.974;2023-12-07T06:26:10;97193.22;;;3.28;58.86
61324;BME280;47203;48.428;11.974;2023-12-07T06:28:14;97183.63;;;3.29;59.05
61324;BME280;47203;48.428;11.974;2023-12-07T06:30:17;97189.84;;;3.28;58.96
61324;BME280;47203;48.428;11.974;2023-12-07T06:32:22;97189.84;;;3.28;59.10
61324;BME280;47203;48.428;11.974;2023-12-07T06:34:28;97186.66;;;3.26;59.05
61324;BME280;47203;48.428;11.974;2023-12-07T06:36:36;97193.63;;;3.25;59.11
61324;BME280;47203;48.428;11.974;2023-12-07T06:38:40;97188.22;;;3.27;59.06
61324;BME280;47203;48.428;11.974;2023-12-07T06:40:45;97188.44;;;3.25;59.24
61324;BME280;47203;48.428;11.974;2023-12-07T06:42:50;97190.44;;;3.23;59.12
61324;BME280;47203;48.428;11.974;2023-12-07T06:44:55;97194.25;;;3.21;59.11
61324;BME280;47203;48.428;11.974;2023-12-07T06:47:00;97194.03;;;3.22;58.99
61324;BME280;47203;48.428;11.974;2023-12-07T06:49:06;97196.44;;;3.24;59.26
61324;BME280;47203;48.428;11.974;2023-12-07T06:51:11;97192.25;;;3.23;59.24
61324;BME280;47203;48.428;11.974;2023-12-07T06:53:17;97201.28;;;3.20;59.19
61324;BME280;47203;48.428;11.974;2023-12-07T06:55:23;97200.44;;;3.20;59.10
61324;BME280;47203;48.428;11.974;2023-12-07T06:57:28;97210.66;;;3.21;59.09
61324;BME280;47203;48.428;11.974;2023-12-07T06:59:30;97214.66;;;3.24;59.26
61324;BME280;47203;48.428;11.974;2023-12-07T07:01:35;97215.25;;;3.26;59.09
61324;BME280;47203;48.428;11.974;2023-12-07T07:03:40;97217.03;;;3.25;58.97
61324;BME280;47203;48.428;11.974;2023-12-07T07:05:45;97215.47;;;3.24;58.94
61324;BME280;47203;48.428;11.974;2023-12-07T07:07:50;97219.66;;;3.25;59.25
61324;BME280;47203;48.428;11.974;2023-12-07T07:10:00;97218.44;;;3.28;58.98
61324;BME280;47203;48.428;11.974;2023-12-07T07:12:05;97215.44;;;3.31;59.13
61324;BME280;47203;48.428;11.974;2023-12-07T07:14:10;97216.25;;;3.31;59.03
61324;BME280;47203;48.428;11.974;2023-12-07T07:16:23;97221.25;;;3.33;59.02
61324;BME280;47203;48.428;11.974;2023-12-07T07:21:27;97232.25;;;3.35;59.03
61324;BME280;47203;48.428;11.974;2023-12-07T07:23:34;97232.63;;;3.39;59.11
61324;BME280;47203;48.428;11.974;2023-12-07T07:25:42;97240.03;;;3.42;59.01
61324;BME280;47203;48.428;11.974;2023-12-07T07:27:47;97232.19;;;3.48;59.00
61324;BME280;47203;48.428;11.974;2023-12-07T07:29:53;97233.19;;;3.54;59.05
61324;BME280;47203;48.428;11.974;2023-12-07T07:31:58;97237.56;;;3.60;58.77
61324;BME280;47203;48.428;11.974;2023-12-07T07:34:03;97230.72;;;3.66;58.87
61324;BME280;47203;48.428;11.974;2023-12-07T07:36:10;97225.91;;;3.70;58.53
61324;BME280;47203;48.428;11.974;2023-12-07T07:38:15;97223.91;;;3.72;58.54
61324;BME280;47203;48.428;11.974;2023-12-07T07:40:17;97227.91;;;3.74;58.61
61324;BME280;47203;48.428;11.974;2023-12-07T07:42:25;97228.69;;;3.75;58.42
61324;BME280;47203;48.428;11.974;2023-12-07T07:44:30;97231.91;;;3.77;58.59
61324;BME280;47203;48.428;11.974;2023-12-07T07:46:35;97233.88;;;3.81;58.40
61324;BME280;47203;48.428;11.974;2023-12-07T07:48:40;97229.84;;;3.86;58.41
61324;BME280;47203;48.428;11.974;2023-12-07T07:50:45;97231.81;;;3.90;58.18
61324;BME280;47203;48.428;11.974;2023-12-07T07:52:51;97228.59;;;3.95;58.35
61324;BME280;47203;48.428;11.974;2023-12-07T07:54:55;97228.53;;;4.01;58.49
61324;BME280;47203;48.428;11.974;2023-12-07T07:56:58;97236.91;;;4.10;58.20
